Time;durP1;ratioP1;P1;durP2;ratioP2;P2;SDS_P1;SDS_P2;PMS_P1;PMS_P2;Temp;Humidity;BMP_temperature;BMP_pressure;BME280_temperature;BME280_humidity;BME280_pressure;Samples;Min_cycle;Max_cycle;Signal;HPM_P1;HPM_P2
2023/01/02 00:02:12;;;;;;;;;;;16.90;99.90;;;;;;5044263;28;19909;-77
2023/01/02 00:04:38;;;;;;;;;;;16.90;99.90;;;;;;5046210;28;19923;-75
2023/01/02 00:07:03;;;;;;;;;;;17.10;99.90;;;;;;5044536;28;20440;-77
2023/01/02 00:09:28;;;;;;;;;;;16.90;99.90;;;;;;5042170;28;19979;-77
2023/01/02 00:11:54;;;;;;;;;;;16.90;99.90;;;;;;5040714;28;20456;-76
2023/01/02 00:14:19;;;;;;;;;;;16.90;99.90;;;;;;5042094;28;19935;-75
2023/01/02 00:16:45;;;;;;;;;;;16.90;99.90;;;;;;5038625;28;19963;-76
2023/01/02 00:19:10;;;;;;;;;;;16.80;99.90;;;;;;5036095;28;19909;-75
2023/01/02 00:21:36;;;;;;;;;;;17.00;99.90;;;;;;5037268;28;20490;-76
2023/01/02 00:24:01;;;;;;;;;;;16.90;99.90;;;;;;5034750;28;19913;-76
2023/01/02 00:26:28;;;;;;;;;;;16.60;99.90;;;;;;5038853;28;19923;-76
2023/01/02 00:28:53;;;;;;;;;;;16.70;99.90;;;;;;5042482;28;19917;-76
2023/01/02 00:31:19;;;;;;;;;;;16.60;99.90;;;;;;5043463;28;20491;-76
2023/01/02 00:33:44;;;;;;;;;;;16.60;99.90;;;;;;5044023;28;19940;-76
2023/01/02 00:36:11;;;;;;;;;;;16.70;99.90;;;;;;5046362;28;19962;-75
2023/01/02 00:38:36;;;;;;;;;;;16.70;99.90;;;;;;5033134;28;19913;-78
2023/01/02 00:41:02;;;;;;;;;;;16.60;99.90;;;;;;5036091;28;19912;-76
2023/01/02 00:43:27;;;;;;;;;;;16.70;99.90;;;;;;5036154;28;20663;-77
2023/01/02 00:45:53;;;;;;;;;;;16.70;99.90;;;;;;5037212;28;19916;-75
2023/01/02 00:48:19;;;;;;;;;;;16.70;99.90;;;;;;5038676;28;20431;-75
2023/01/02 00:50:44;;;;;;;;;;;16.70;99.90;;;;;;5042627;28;19917;-75
2023/01/02 00:53:10;;;;;;;;;;;16.60;99.90;;;;;;5039273;28;20409;-75
2023/01/02 00:55:36;;;;;;;;;;;16.80;99.90;;;;;;5044690;28;19913;-78
2023/01/02 00:58:01;;;;;;;;;;;16.60;99.90;;;;;;5042221;28;20303;-77
2023/01/02 01:00:26;;;;;;;;;;;16.60;99.90;;;;;;5041270;28;19913;-76
2023/01/02 01:02:55;;;;;;;;;;;16.50;99.90;;;;;;5042342;28;19956;-75
2023/01/02 01:05:21;;;;;;;;;;;16.60;99.90;;;;;;5047156;28;19975;-79
2023/01/02 01:07:47;;;;;;;;;;;16.70;99.90;;;;;;5057633;28;20410;-79
2023/01/02 01:10:12;;;;;;;;;;;16.70;99.90;;;;;;5057083;28;19913;-76
2023/01/02 01:12:37;;;;;;;;;;;16.60;99.90;;;;;;5051774;28;19913;-76
2023/01/02 01:15:03;;;;;;;;;;;16.70;99.90;;;;;;5055968;28;19972;-78
2023/01/02 01:17:30;;;;;;;;;;;16.40;99.90;;;;;;5056078;28;19976;-79
2023/01/02 01:19:55;;;;;;;;;;;16.60;99.90;;;;;;5064345;28;19920;-78
2023/01/02 01:22:21;;;;;;;;;;;16.50;99.90;;;;;;5053907;28;19984;-75
2023/01/02 01:24:46;;;;;;;;;;;16.30;99.90;;;;;;5037540;28;19904;-74
2023/01/02 01:27:12;;;;;;;;;;;16.30;99.90;;;;;;5041179;28;19912;-74
2023/01/02 01:29:37;;;;;;;;;;;16.10;99.90;;;;;;5028595;28;19962;-77
2023/01/02 01:32:03;;;;;;;;;;;16.10;99.90;;;;;;5037139;28;19915;-75
2023/01/02 01:34:28;;;;;;;;;;;16.20;99.90;;;;;;5035933;28;19973;-76
2023/01/02 01:36:54;;;;;;;;;;;16.10;99.90;;;;;;5050249;28;19917;-76
2023/01/02 01:39:19;;;;;;;;;;;16.20;99.90;;;;;;5051338;28;19920;-77
2023/01/02 01:41:45;;;;;;;;;;;16.20;99.90;;;;;;5054537;28;19940;-78
2023/01/02 01:44:29;;;;;;;;;;;16.00;99.90;;;;;;5046051;28;19905;-75
2023/01/02 01:46:55;;;;;;;;;;;16.00;99.90;;;;;;5053870;28;19924;-75
2023/01/02 01:49:24;;;;;;;;;;;16.00;99.90;;;;;;5046774;28;19917;-76
2023/01/02 01:51:55;;;;;;;;;;;15.90;99.90;;;;;;5052050;28;19917;-75
2023/01/02 01:54:23;;;;;;;;;;;15.80;99.90;;;;;;5056600;28;19909;-77
2023/01/02 01:56:51;;;;;;;;;;;15.70;99.90;;;;;;5056792;28;20146;-77
2023/01/02 01:59:17;;;;;;;;;;;15.80;99.90;;;;;;5039484;28;20008;-76
2023/01/02 02:01:43;;;;;;;;;;;15.70;99.90;;;;;;5045134;28;19936;-76
2023/01/02 02:04:10;;;;;;;;;;;15.80;99.90;;;;;;5037523;28;20441;-76
2023/01/02 02:06:35;;;;;;;;;;;15.70;99.90;;;;;;5036013;28;19917;-75
2023/01/02 02:09:24;;;;;;;;;;;15.80;99.90;;;;;;5040043;28;19919;-73
2023/01/02 02:11:50;;;;;;;;;;;15.80;99.90;;;;;;5037273;28;19955;-74
2023/01/02 02:14:15;;;;;;;;;;;15.80;99.90;;;;;;5039167;28;19908;-77
2023/01/02 02:16:59;;;;;;;;;;;15.90;99.90;;;;;;5051868;28;19930;-76
2023/01/02 02:19:33;;;;;;;;;;;15.80;99.90;;;;;;5052096;28;20480;-78
2023/01/02 02:22:25;;;;;;;;;;;15.80;99.90;;;;;;5045830;28;19909;-77
2023/01/02 02:24:50;;;;;;;;;;;15.90;99.90;;;;;;5017881;28;19913;-73
2023/01/02 02:27:35;;;;;;;;;;;15.80;99.90;;;;;;5052215;28;19939;-76
2023/01/02 02:30:06;;;;;;;;;;;15.90;99.90;;;;;;5052379;28;19916;-74
2023/01/02 02:32:51;;;;;;;;;;;15.90;99.90;;;;;;5047300;28;19904;-77
2023/01/02 02:35:16;;;;;;;;;;;15.90;99.90;;;;;;5048322;28;19917;-78
2023/01/02 02:37:44;;;;;;;;;;;15.80;99.90;;;;;;5044504;28;19959;-75
2023/01/02 02:40:10;;;;;;;;;;;15.70;99.90;;;;;;5046044;28;19913;-76
2023/01/02 02:42:35;;;;;;;;;;;15.70;99.90;;;;;;5053444;28;20473;-76
2023/01/02 02:45:21;;;;;;;;;;;15.70;99.90;;;;;;5050105;28;20581;-77
2023/01/02 02:47:50;;;;;;;;;;;15.70;99.90;;;;;;5052257;28;19916;-79
2023/01/02 02:50:24;;;;;;;;;;;15.80;99.90;;;;;;5044228;28;19916;-76
2023/01/02 02:52:52;;;;;;;;;;;15.70;99.90;;;;;;5044905;28;19920;-74
2023/01/02 02:55:18;;;;;;;;;;;15.70;99.90;;;;;;5039946;28;19935;-75
2023/01/02 02:57:44;;;;;;;;;;;15.70;99.90;;;;;;5039438;28;19988;-75
2023/01/02 03:00:12;;;;;;;;;;;15.70;99.90;;;;;;5042464;28;19913;-76
2023/01/02 03:02:37;;;;;;;;;;;15.70;99.90;;;;;;5026680;28;19913;-74
2023/01/02 03:05:06;;;;;;;;;;;15.60;99.90;;;;;;5032755;28;20478;-75
2023/01/02 03:07:40;;;;;;;;;;;15.60;99.90;;;;;;5035790;28;19913;-75
2023/01/02 03:10:12;;;;;;;;;;;15.50;99.90;;;;;;5033566;28;20267;-77
2023/01/02 03:12:37;;;;;;;;;;;15.50;99.90;;;;;;5041585;28;19909;-76
2023/01/02 03:15:09;;;;;;;;;;;15.40;99.90;;;;;;5044819;28;19920;-77
2023/01/02 03:17:42;;;;;;;;;;;15.30;99.90;;;;;;5046281;28;20802;-77
2023/01/02 03:20:08;;;;;;;;;;;15.30;99.90;;;;;;5034402;28;19920;-76
2023/01/02 03:22:37;;;;;;;;;;;15.20;99.90;;;;;;5033252;28;19916;-74
2023/01/02 03:25:03;;;;;;;;;;;15.20;99.90;;;;;;5043221;28;20286;-74
2023/01/02 03:27:32;;;;;;;;;;;15.10;99.90;;;;;;5034287;28;20482;-79
2023/01/02 03:30:02;;;;;;;;;;;15.00;99.90;;;;;;5042021;28;19952;-75
2023/01/02 03:32:29;;;;;;;;;;;15.00;99.90;;;;;;5043904;28;19916;-75
2023/01/02 03:34:55;;;;;;;;;;;15.00;99.90;;;;;;5042316;28;19913;-77
2023/01/02 03:37:23;;;;;;;;;;;15.00;99.90;;;;;;5034269;28;19913;-74
2023/01/02 03:39:52;;;;;;;;;;;14.90;99.90;;;;;;5042454;28;19925;-76
2023/01/02 03:42:35;;;;;;;;;;;14.90;99.90;;;;;;5038857;28;19987;-75
2023/01/02 03:45:03;;;;;;;;;;;14.90;99.90;;;;;;5032478;28;19905;-75
2023/01/02 03:47:32;;;;;;;;;;;14.90;99.90;;;;;;5030323;28;19909;-75
2023/01/02 03:49:59;;;;;;;;;;;14.90;99.90;;;;;;5032207;28;19913;-78
2023/01/02 03:52:25;;;;;;;;;;;14.90;99.90;;;;;;5035208;28;20469;-77
2023/01/02 03:54:51;;;;;;;;;;;15.00;99.90;;;;;;5028694;28;19909;-76
2023/01/02 03:57:21;;;;;;;;;;;15.10;99.90;;;;;;5034307;28;19904;-78
2023/01/02 03:59:52;;;;;;;;;;;15.10;99.90;;;;;;5043997;28;19905;-74
2023/01/02 04:02:17;;;;;;;;;;;15.10;99.90;;;;;;5037459;28;20031;-77
2023/01/02 04:05:00;;;;;;;;;;;15.10;99.90;;;;;;5042049;28;20012;-77
2023/01/02 04:07:45;;;;;;;;;;;15.10;99.90;;;;;;5034096;28;20274;-77
2023/01/02 04:10:12;;;;;;;;;;;15.10;99.90;;;;;;5033512;28;20282;-77
2023/01/02 04:12:39;;;;;;;;;;;15.20;99.90;;;;;;5037216;28;20348;-75
2023/01/02 04:15:07;;;;;;;;;;;15.20;99.90;;;;;;5043402;28;19923;-77
2023/01/02 04:17:56;;;;;;;;;;;15.20;99.90;;;;;;5042181;28;19913;-76
2023/01/02 04:20:25;;;;;;;;;;;15.20;99.90;;;;;;5036253;28;20522;-77
2023/01/02 04:22:55;;;;;;;;;;;15.20;99.90;;;;;;5031751;28;19917;-76
2023/01/02 04:25:23;;;;;;;;;;;15.00;99.90;;;;;;5039957;28;19908;-75
2023/01/02 04:28:00;;;;;;;;;;;15.10;99.90;;;;;;5042588;28;19967;-77
2023/01/02 04:30:27;;;;;;;;;;;15.10;99.90;;;;;;5042565;28;19917;-75
2023/01/02 04:32:53;;;;;;;;;;;15.10;99.90;;;;;;5042662;28;20555;-73
2023/01/02 04:35:20;;;;;;;;;;;15.10;99.90;;;;;;5043262;28;19920;-77
2023/01/02 04:37:46;;;;;;;;;;;15.20;99.90;;;;;;5040660;28;19924;-76
2023/01/02 04:40:14;;;;;;;;;;;15.20;99.90;;;;;;5042794;28;19916;-77
2023/01/02 04:42:39;;;;;;;;;;;15.30;99.90;;;;;;5038898;28;19909;-75
2023/01/02 04:45:05;;;;;;;;;;;15.30;99.90;;;;;;5042388;28;19928;-76
2023/01/02 04:47:30;;;;;;;;;;;15.50;99.90;;;;;;5035648;28;19917;-75
2023/01/02 04:49:56;;;;;;;;;;;15.50;99.90;;;;;;5034584;28;19944;-77
2023/01/02 04:52:21;;;;;;;;;;;15.70;99.90;;;;;;5032708;28;19956;-78
2023/01/02 04:54:47;;;;;;;;;;;15.60;99.90;;;;;;5040531;28;20448;-76
2023/01/02 04:57:12;;;;;;;;;;;15.80;99.90;;;;;;5038443;28;19948;-77
2023/01/02 04:59:38;;;;;;;;;;;15.80;99.90;;;;;;5035705;28;19964;-76
2023/01/02 05:02:03;;;;;;;;;;;15.90;99.90;;;;;;5041740;28;19920;-74
2023/01/02 05:04:28;;;;;;;;;;;15.90;99.90;;;;;;5043984;28;20473;-76
2023/01/02 05:06:54;;;;;;;;;;;15.90;99.90;;;;;;5035954;28;20014;-77
2023/01/02 05:09:19;;;;;;;;;;;15.90;99.90;;;;;;5044028;28;19916;-79
2023/01/02 05:11:45;;;;;;;;;;;15.30;99.90;;;;;;5041684;28;20298;-76
2023/01/02 05:14:12;;;;;;;;;;;14.80;99.90;;;;;;5034052;28;21461;-76
2023/01/02 05:16:37;;;;;;;;;;;14.60;99.90;;;;;;5032468;28;20004;-75
2023/01/02 05:19:03;;;;;;;;;;;14.50;99.90;;;;;;5038287;28;20359;-76
2023/01/02 05:24:12;;;;;;;;;;;14.30;99.90;;;;;;5035935;28;20547;-77
2023/01/02 05:26:38;;;;;;;;;;;14.30;99.90;;;;;;5045064;28;19952;-75
2023/01/02 05:29:03;;;;;;;;;;;14.20;99.90;;;;;;5040773;28;19913;-78
2023/01/02 05:31:29;;;;;;;;;;;14.30;99.90;;;;;;5031922;28;19925;-74
2023/01/02 05:33:55;;;;;;;;;;;14.20;99.90;;;;;;5037630;28;19921;-76
2023/01/02 05:36:22;;;;;;;;;;;14.30;99.90;;;;;;5038063;28;19920;-77
2023/01/02 05:38:48;;;;;;;;;;;14.50;99.90;;;;;;5040743;28;20031;-78
2023/01/02 05:41:13;;;;;;;;;;;14.50;99.90;;;;;;5039893;28;20132;-76
2023/01/02 05:43:39;;;;;;;;;;;14.60;99.90;;;;;;5042534;28;19909;-76
2023/01/02 05:46:12;;;;;;;;;;;14.80;99.90;;;;;;5048875;28;19992;-76
2023/01/02 05:48:37;;;;;;;;;;;14.70;99.90;;;;;;5036097;28;19959;-76
2023/01/02 05:51:04;;;;;;;;;;;14.90;99.90;;;;;;5044012;28;20413;-75
2023/01/02 05:53:29;;;;;;;;;;;15.00;99.90;;;;;;5035586;28;19936;-73
2023/01/02 05:56:02;;;;;;;;;;;14.80;99.90;;;;;;5030986;28;19924;-75
2023/01/02 05:58:29;;;;;;;;;;;14.90;99.90;;;;;;5036808;28;19956;-76
2023/01/02 06:00:54;;;;;;;;;;;14.90;99.90;;;;;;5041388;28;19913;-77
2023/01/02 06:03:20;;;;;;;;;;;14.90;99.90;;;;;;5037180;28;19923;-77
2023/01/02 06:05:45;;;;;;;;;;;14.80;99.90;;;;;;5042817;28;19913;-77
2023/01/02 06:08:11;;;;;;;;;;;14.90;99.90;;;;;;5042082;28;19924;-75
2023/01/02 06:10:36;;;;;;;;;;;15.00;99.90;;;;;;5033722;28;19913;-75
2023/01/02 06:13:02;;;;;;;;;;;15.10;99.90;;;;;;5038689;28;19913;-76
2023/01/02 06:15:27;;;;;;;;;;;15.10;99.90;;;;;;5044601;28;19916;-76
2023/01/02 06:17:52;;;;;;;;;;;15.10;99.90;;;;;;5038022;28;20371;-74
2023/01/02 06:20:18;;;;;;;;;;;15.10;99.90;;;;;;5043686;28;20087;-75
2023/01/02 06:22:43;;;;;;;;;;;15.20;99.90;;;;;;5042072;28;20008;-74
2023/01/02 06:25:09;;;;;;;;;;;15.20;99.90;;;;;;5040684;28;20401;-75
2023/01/02 06:27:34;;;;;;;;;;;15.10;99.90;;;;;;5036010;28;19951;-76
2023/01/02 06:30:00;;;;;;;;;;;15.20;99.90;;;;;;5040260;28;19912;-73
2023/01/02 06:32:25;;;;;;;;;;;15.20;99.90;;;;;;5041981;28;19921;-75
2023/01/02 06:34:51;;;;;;;;;;;15.30;99.90;;;;;;5038775;28;20408;-76
2023/01/02 06:37:16;;;;;;;;;;;15.20;99.90;;;;;;5037767;28;20516;-75
2023/01/02 06:39:42;;;;;;;;;;;15.20;99.90;;;;;;5041209;28;19944;-75
2023/01/02 06:42:07;;;;;;;;;;;15.20;99.90;;;;;;5039154;28;19909;-75
2023/01/02 06:44:32;;;;;;;;;;;15.30;99.90;;;;;;5040968;28;19924;-75
2023/01/02 06:46:58;;;;;;;;;;;15.40;99.90;;;;;;5042432;28;19917;-75
2023/01/02 06:49:23;;;;;;;;;;;15.50;99.90;;;;;;5041912;28;20563;-76
2023/01/02 06:51:49;;;;;;;;;;;15.40;99.90;;;;;;5041984;28;19913;-75
2023/01/02 06:54:14;;;;;;;;;;;15.50;99.90;;;;;;5040090;28;19923;-76
2023/01/02 06:56:40;;;;;;;;;;;15.50;99.90;;;;;;5041974;28;19912;-76
2023/01/02 06:59:05;;;;;;;;;;;15.50;99.90;;;;;;5039944;28;19912;-76
2023/01/02 07:01:30;;;;;;;;;;;15.50;99.90;;;;;;5042141;28;19920;-76
2023/01/02 07:03:56;;;;;;;;;;;15.40;99.90;;;;;;5041337;28;20412;-74
2023/01/02 07:06:22;;;;;;;;;;;15.50;99.90;;;;;;5041520;28;19909;-77
2023/01/02 07:08:47;;;;;;;;;;;15.40;99.90;;;;;;5037035;28;19913;-76
2023/01/02 07:11:17;;;;;;;;;;;15.50;99.90;;;;;;5042211;28;19921;-76
2023/01/02 07:13:43;;;;;;;;;;;15.40;99.90;;;;;;5038823;28;19963;-76
2023/01/02 07:16:10;;;;;;;;;;;15.50;99.90;;;;;;5041835;28;19952;-76
2023/01/02 07:18:36;;;;;;;;;;;15.50;99.90;;;;;;5040862;28;20016;-77
2023/01/02 07:21:01;;;;;;;;;;;15.40;99.90;;;;;;5042620;28;20350;-75
2023/01/02 07:23:27;;;;;;;;;;;15.30;99.90;;;;;;5040086;28;19915;-75
2023/01/02 07:25:53;;;;;;;;;;;15.40;99.90;;;;;;5042136;28;19916;-76
2023/01/02 07:28:19;;;;;;;;;;;15.50;99.90;;;;;;5040176;28;20285;-75
2023/01/02 07:30:44;;;;;;;;;;;15.40;99.90;;;;;;5045365;28;19909;-76
2023/01/02 07:33:10;;;;;;;;;;;15.40;99.90;;;;;;5044416;28;19948;-78
2023/01/02 07:35:35;;;;;;;;;;;15.40;99.90;;;;;;5047767;28;19920;-79
2023/01/02 07:38:01;;;;;;;;;;;15.40;99.90;;;;;;5044517;28;19916;-78
2023/01/02 07:40:26;;;;;;;;;;;15.20;99.90;;;;;;5037003;28;19917;-75
2023/01/02 07:42:52;;;;;;;;;;;15.20;99.90;;;;;;5039314;28;19959;-77
2023/01/02 07:45:18;;;;;;;;;;;15.20;99.90;;;;;;5042785;28;20082;-73
2023/01/02 07:47:43;;;;;;;;;;;15.10;99.90;;;;;;5031269;28;20518;-75
2023/01/02 07:50:09;;;;;;;;;;;15.10;99.90;;;;;;5045038;28;19989;-76
2023/01/02 07:52:34;;;;;;;;;;;15.00;99.90;;;;;;5049086;28;19967;-77
2023/01/02 07:55:00;;;;;;;;;;;15.00;99.90;;;;;;5041354;28;19920;-76
2023/01/02 07:57:27;;;;;;;;;;;15.00;99.90;;;;;;5048657;28;19912;-76
2023/01/02 07:59:53;;;;;;;;;;;14.90;99.90;;;;;;5045591;28;20301;-75
2023/01/02 08:02:18;;;;;;;;;;;14.90;99.90;;;;;;5046090;28;19927;-77
2023/01/02 08:04:44;;;;;;;;;;;14.80;99.90;;;;;;5039920;28;20584;-79
2023/01/02 08:07:09;;;;;;;;;;;14.70;99.90;;;;;;5034574;28;19921;-75
2023/01/02 08:09:35;;;;;;;;;;;14.70;99.90;;;;;;5043887;28;20009;-76
2023/01/02 08:12:00;;;;;;;;;;;14.70;99.90;;;;;;5052401;28;19913;-76
2023/01/02 08:14:26;;;;;;;;;;;14.70;99.90;;;;;;5055778;28;19913;-75
2023/01/02 08:16:51;;;;;;;;;;;14.60;99.90;;;;;;5054597;28;19916;-78
2023/01/02 08:19:16;;;;;;;;;;;14.60;99.90;;;;;;5044975;28;19970;-75
2023/01/02 08:21:42;;;;;;;;;;;14.60;99.90;;;;;;5052197;28;19908;-74
2023/01/02 08:24:07;;;;;;;;;;;14.60;99.90;;;;;;5049802;28;19916;-74
2023/01/02 08:26:33;;;;;;;;;;;14.50;99.90;;;;;;5041480;28;19916;-76
2023/01/02 08:28:58;;;;;;;;;;;14.50;99.90;;;;;;5042461;28;19909;-78
2023/01/02 08:31:24;;;;;;;;;;;14.50;99.90;;;;;;5043451;28;19909;-76
2023/01/02 08:33:49;;;;;;;;;;;14.40;99.90;;;;;;5049106;28;19917;-76
2023/01/02 08:36:15;;;;;;;;;;;14.30;99.90;;;;;;5055091;28;19956;-77
2023/01/02 08:38:41;;;;;;;;;;;14.20;99.90;;;;;;5052916;28;19927;-76
2023/01/02 08:41:07;;;;;;;;;;;14.10;99.90;;;;;;5047659;28;19917;-78
2023/01/02 08:43:34;;;;;;;;;;;14.10;99.90;;;;;;5051075;28;20418;-78
2023/01/02 08:46:06;;;;;;;;;;;14.10;99.90;;;;;;5046227;28;19924;-79
2023/01/02 08:48:32;;;;;;;;;;;14.10;99.90;;;;;;5040501;28;19916;-77
2023/01/02 08:50:58;;;;;;;;;;;14.10;99.90;;;;;;5043965;28;19939;-77
2023/01/02 08:53:23;;;;;;;;;;;13.90;99.90;;;;;;5046774;28;19913;-77
2023/01/02 08:55:49;;;;;;;;;;;13.90;99.90;;;;;;5046300;28;20033;-75
2023/01/02 08:58:14;;;;;;;;;;;13.90;99.90;;;;;;5044048;28;19909;-77
2023/01/02 09:00:40;;;;;;;;;;;13.90;99.90;;;;;;5047598;28;20319;-76
2023/01/02 09:03:05;;;;;;;;;;;13.80;99.90;;;;;;5041247;28;19952;-75
2023/01/02 09:05:30;;;;;;;;;;;13.80;99.90;;;;;;5041488;28;20008;-75
2023/01/02 09:07:56;;;;;;;;;;;13.80;99.90;;;;;;5044979;28;19913;-76
2023/01/02 09:10:22;;;;;;;;;;;13.80;99.90;;;;;;5046380;28;19943;-76
2023/01/02 09:12:47;;;;;;;;;;;13.70;99.90;;;;;;5044998;28;19909;-77
2023/01/02 09:15:13;;;;;;;;;;;13.60;99.90;;;;;;5044902;28;19913;-79
2023/01/02 09:17:38;;;;;;;;;;;13.50;99.90;;;;;;5040664;28;19913;-77
2023/01/02 09:20:04;;;;;;;;;;;13.50;99.90;;;;;;5041079;28;19909;-75
2023/01/02 09:22:29;;;;;;;;;;;13.40;99.90;;;;;;5040619;28;19974;-79
2023/01/02 09:24:55;;;;;;;;;;;13.30;99.90;;;;;;5041891;28;19916;-77
2023/01/02 09:27:20;;;;;;;;;;;13.20;99.90;;;;;;5045007;28;19927;-76
2023/01/02 09:29:46;;;;;;;;;;;13.20;99.90;;;;;;5043313;28;20182;-78
2023/01/02 09:32:11;;;;;;;;;;;13.10;99.90;;;;;;5037229;28;19920;-76
2023/01/02 09:34:37;;;;;;;;;;;12.90;99.90;;;;;;5043161;28;19917;-77
2023/01/02 09:37:02;;;;;;;;;;;12.80;99.90;;;;;;5040744;28;21060;-77
2023/01/02 09:39:28;;;;;;;;;;;12.80;99.90;;;;;;5042448;28;19913;-77
2023/01/02 09:41:57;;;;;;;;;;;12.80;99.90;;;;;;5039465;28;19971;-76
2023/01/02 09:44:23;;;;;;;;;;;12.70;99.90;;;;;;5039411;28;19912;-76
2023/01/02 09:46:51;;;;;;;;;;;12.70;99.90;;;;;;5043028;28;20008;-78
2023/01/02 09:49:26;;;;;;;;;;;12.70;99.90;;;;;;5040489;28;19913;-76
2023/01/02 09:51:51;;;;;;;;;;;12.50;99.90;;;;;;5046357;28;19909;-76
2023/01/02 09:54:21;;;;;;;;;;;12.50;99.90;;;;;;5042768;28;20011;-76
2023/01/02 09:56:49;;;;;;;;;;;12.40;99.90;;;;;;5047430;28;19908;-75
2023/01/02 09:59:26;;;;;;;;;;;12.30;99.90;;;;;;5044033;28;19970;-77
2023/01/02 10:02:00;;;;;;;;;;;12.20;99.90;;;;;;5042644;28;20507;-77
2023/01/02 10:04:32;;;;;;;;;;;12.20;99.90;;;;;;5049352;28;19920;-78
2023/01/02 10:07:08;;;;;;;;;;;12.20;99.90;;;;;;5060587;28;19921;-79
2023/01/02 10:09:39;;;;;;;;;;;12.10;99.90;;;;;;5068969;28;19977;-78
2023/01/02 10:12:13;;;;;;;;;;;12.00;99.90;;;;;;5053918;28;19901;-78
2023/01/02 10:14:58;;;;;;;;;;;11.90;99.90;;;;;;5059456;28;19912;-77
2023/01/02 10:17:24;;;;;;;;;;;11.90;99.90;;;;;;5066341;28;20099;-77
2023/01/02 10:19:50;;;;;;;;;;;11.90;99.90;;;;;;5072090;28;19905;-78
2023/01/02 10:22:18;;;;;;;;;;;11.80;99.90;;;;;;5070274;28;19913;-77
2023/01/02 10:25:02;;;;;;;;;;;11.70;99.90;;;;;;5066574;28;19957;-77
2023/01/02 10:27:49;;;;;;;;;;;11.80;99.90;;;;;;5064664;28;19912;-76
2023/01/02 10:30:17;;;;;;;;;;;11.80;99.90;;;;;;5071674;28;19913;-77
2023/01/02 10:32:45;;;;;;;;;;;11.80;99.90;;;;;;5057425;28;19912;-76
2023/01/02 10:35:30;;;;;;;;;;;11.90;99.90;;;;;;5069557;28;20467;-76
2023/01/02 10:37:56;;;;;;;;;;;11.80;99.90;;;;;;5046152;28;19917;-74
2023/01/02 10:40:22;;;;;;;;;;;11.80;99.90;;;;;;5036958;28;19921;-74
2023/01/02 10:42:50;;;;;;;;;;;11.70;99.90;;;;;;5039827;28;19913;-75
2023/01/02 10:45:16;;;;;;;;;;;11.60;99.90;;;;;;5064103;28;19904;-77
2023/01/02 10:47:42;;;;;;;;;;;11.60;99.90;;;;;;5062268;28;19924;-78
2023/01/02 10:50:15;;;;;;;;;;;11.70;99.90;;;;;;5061467;28;19961;-76
2023/01/02 10:53:03;;;;;;;;;;;11.70;99.90;;;;;;5059384;28;19901;-76
2023/01/02 10:55:30;;;;;;;;;;;11.60;99.90;;;;;;5059272;28;19897;-77
2023/01/02 10:58:00;;;;;;;;;;;11.60;99.90;;;;;;5056172;28;19903;-76
2023/01/02 11:00:27;;;;;;;;;;;11.60;99.90;;;;;;5063233;28;19936;-77
2023/01/02 11:02:54;;;;;;;;;;;11.60;99.90;;;;;;5064636;28;19948;-77
2023/01/02 11:05:21;;;;;;;;;;;11.70;99.90;;;;;;5055163;28;19928;-79
2023/01/02 11:07:48;;;;;;;;;;;11.60;99.90;;;;;;5048418;28;20358;-78
2023/01/02 11:10:21;;;;;;;;;;;11.60;99.90;;;;;;5041653;28;19914;-76
2023/01/02 11:12:46;;;;;;;;;;;11.70;99.90;;;;;;5039777;28;19917;-75
2023/01/02 11:15:13;;;;;;;;;;;11.70;99.90;;;;;;5033925;28;19905;-77
2023/01/02 11:17:41;;;;;;;;;;;11.60;99.90;;;;;;5047768;28;19912;-74
2023/01/02 11:20:17;;;;;;;;;;;11.60;99.90;;;;;;5045814;28;19916;-77
2023/01/02 11:22:43;;;;;;;;;;;11.60;99.90;;;;;;5044962;28;20471;-76
2023/01/02 11:25:19;;;;;;;;;;;11.70;99.90;;;;;;5039186;28;19921;-77
2023/01/02 11:27:45;;;;;;;;;;;11.70;99.90;;;;;;5047353;28;19913;-75
2023/01/02 11:30:31;;;;;;;;;;;11.80;99.90;;;;;;5036056;28;19913;-75
2023/01/02 11:33:06;;;;;;;;;;;11.70;99.90;;;;;;5041583;28;20220;-78
2023/01/02 11:35:38;;;;;;;;;;;11.70;99.90;;;;;;5041646;28;19908;-75
2023/01/02 11:38:04;;;;;;;;;;;11.80;99.90;;;;;;5045973;28;19909;-75
2023/01/02 11:40:30;;;;;;;;;;;11.70;99.90;;;;;;5053607;28;19913;-80
2023/01/02 11:45:44;;;;;;;;;;;11.70;99.90;;;;;;5039987;28;19916;-77
2023/01/02 11:48:23;;;;;;;;;;;11.70;99.90;;;;;;5028886;28;20192;-76
2023/01/02 11:50:49;;;;;;;;;;;11.70;99.90;;;;;;5048780;28;21075;-75
2023/01/02 11:53:18;;;;;;;;;;;11.70;99.90;;;;;;5045473;28;20513;-77
2023/01/02 11:55:53;;;;;;;;;;;11.70;99.90;;;;;;5046715;28;19952;-76
2023/01/02 11:58:37;;;;;;;;;;;11.60;99.90;;;;;;5035222;28;19913;-76
2023/01/02 12:01:17;;;;;;;;;;;11.50;99.90;;;;;;5044389;28;20563;-75
2023/01/02 12:03:43;;;;;;;;;;;11.50;99.90;;;;;;5043547;28;19916;-74
2023/01/02 12:06:14;;;;;;;;;;;11.50;99.90;;;;;;5046527;28;19917;-73
2023/01/02 12:09:02;;;;;;;;;;;11.40;99.90;;;;;;5044458;28;19913;-75
2023/01/02 12:11:28;;;;;;;;;;;11.40;99.90;;;;;;5046283;28;19913;-76
2023/01/02 12:13:53;;;;;;;;;;;11.40;99.90;;;;;;5046065;28;19947;-77
2023/01/02 12:16:37;;;;;;;;;;;11.30;99.90;;;;;;5047102;28;20503;-75
2023/01/02 12:19:06;;;;;;;;;;;11.30;99.90;;;;;;5048365;28;19932;-76
2023/01/02 12:21:40;;;;;;;;;;;11.20;99.90;;;;;;5046042;28;19916;-76
2023/01/02 12:24:20;;;;;;;;;;;11.20;99.90;;;;;;5045047;28;20512;-76
2023/01/02 12:26:46;;;;;;;;;;;11.10;99.90;;;;;;5047295;28;19913;-74
2023/01/02 12:29:33;;;;;;;;;;;11.10;99.90;;;;;;5043655;28;19909;-74
2023/01/02 12:32:04;;;;;;;;;;;11.10;99.90;;;;;;5043116;28;19913;-77
2023/01/02 12:35:02;;;;;;;;;;;11.20;99.90;;;;;;5044329;28;19920;-74
2023/01/02 12:37:47;;;;;;;;;;;11.10;99.90;;;;;;5022720;28;19908;-74
2023/01/02 12:40:22;;;;;;;;;;;11.20;99.90;;;;;;5044428;28;19919;-76
2023/01/02 12:42:47;;;;;;;;;;;11.20;99.90;;;;;;5043187;28;19908;-76
2023/01/02 12:45:22;;;;;;;;;;;11.20;99.90;;;;;;5043189;28;19909;-74
2023/01/02 12:47:58;;;;;;;;;;;11.30;99.90;;;;;;5043957;28;20632;-74
2023/01/02 12:50:23;;;;;;;;;;;11.30;99.90;;;;;;5042535;28;19920;-76
2023/01/02 12:52:57;;;;;;;;;;;11.30;99.90;;;;;;5043899;28;19909;-75
2023/01/02 12:55:35;;;;;;;;;;;11.40;99.90;;;;;;5043766;28;19999;-76
2023/01/02 12:58:03;;;;;;;;;;;11.40;99.90;;;;;;5038592;28;19917;-76
2023/01/02 13:00:47;;;;;;;;;;;11.50;99.90;;;;;;5044522;28;19913;-74
2023/01/02 13:03:22;;;;;;;;;;;11.40;99.90;;;;;;5041455;28;20004;-76
2023/01/02 13:05:57;;;;;;;;;;;11.40;99.90;;;;;;5043730;28;20286;-75
2023/01/02 13:08:28;;;;;;;;;;;11.40;99.90;;;;;;5041524;28;19912;-72
2023/01/02 13:10:55;;;;;;;;;;;11.40;99.90;;;;;;5043729;28;19924;-75
2023/01/02 13:13:24;;;;;;;;;;;11.50;99.90;;;;;;5042374;28;19995;-76
2023/01/02 13:15:50;;;;;;;;;;;11.50;99.90;;;;;;5043265;28;20433;-74
2023/01/02 13:18:29;;;;;;;;;;;11.50;99.90;;;;;;5040015;28;19975;-74
2023/01/02 13:21:14;;;;;;;;;;;11.50;99.90;;;;;;5042761;28;19908;-77
2023/01/02 13:23:45;;;;;;;;;;;11.50;99.90;;;;;;5033828;28;20016;-76
2023/01/02 13:26:13;;;;;;;;;;;11.60;99.90;;;;;;5045563;28;20424;-76
2023/01/02 13:28:48;;;;;;;;;;;11.60;99.90;;;;;;5019861;28;20302;-72
2023/01/02 13:31:13;;;;;;;;;;;11.50;99.90;;;;;;5046134;28;19920;-77
2023/01/02 13:33:40;;;;;;;;;;;11.60;99.90;;;;;;5040390;28;19909;-75
2023/01/02 13:36:14;;;;;;;;;;;11.70;99.90;;;;;;5037270;28;20436;-75
2023/01/02 13:38:40;;;;;;;;;;;11.80;99.90;;;;;;5041617;28;19971;-74
2023/01/02 13:41:06;;;;;;;;;;;11.90;99.90;;;;;;5046108;28;19913;-76
2023/01/02 13:43:32;;;;;;;;;;;11.90;99.90;;;;;;5042950;28;20584;-74
2023/01/02 13:45:58;;;;;;;;;;;11.80;99.90;;;;;;5040611;28;19924;-76
2023/01/02 13:48:37;;;;;;;;;;;11.70;99.90;;;;;;5047543;28;19916;-73
2023/01/02 13:51:05;;;;;;;;;;;11.80;99.90;;;;;;5046165;28;19909;-75
2023/01/02 13:53:44;;;;;;;;;;;11.80;99.90;;;;;;5045030;28;19915;-77
2023/01/02 13:56:14;;;;;;;;;;;11.70;99.90;;;;;;5047676;28;19908;-75
2023/01/02 13:58:41;;;;;;;;;;;11.60;99.90;;;;;;5045729;28;20001;-75
2023/01/02 14:01:22;;;;;;;;;;;11.60;99.90;;;;;;5052076;28;19927;-78
2023/01/02 14:04:21;;;;;;;;;;;11.50;99.90;;;;;;5055591;28;20067;-75
2023/01/02 14:06:47;;;;;;;;;;;11.50;99.90;;;;;;5064770;28;20144;-77
2023/01/02 14:09:14;;;;;;;;;;;11.50;99.90;;;;;;5060255;28;19921;-77
2023/01/02 14:11:48;;;;;;;;;;;11.30;99.90;;;;;;5056273;28;19912;-73
2023/01/02 14:14:32;;;;;;;;;;;11.30;99.90;;;;;;5049775;28;19991;-74
2023/01/02 14:17:16;;;;;;;;;;;11.20;99.90;;;;;;5043123;28;20409;-76
2023/01/02 14:19:42;;;;;;;;;;;11.30;99.90;;;;;;5048958;28;19997;-73
2023/01/02 14:22:17;;;;;;;;;;;11.30;99.90;;;;;;5046750;28;19909;-75
2023/01/02 14:24:42;;;;;;;;;;;11.20;99.90;;;;;;5054269;28;20446;-77
2023/01/02 14:27:14;;;;;;;;;;;11.10;99.90;;;;;;5048681;28;19996;-74
2023/01/02 14:29:44;;;;;;;;;;;11.10;99.90;;;;;;5054605;28;19943;-80
2023/01/02 14:32:21;;;;;;;;;;;11.00;99.90;;;;;;5049981;28;19909;-75